Kisakata, Japan
Current Conditions -  °F | °C
As of 5:00 PM on Thursday 27 Nov 2014 (Local Time) from RJSY Reporting Station
Few Clouds Few Clouds  
Wind Chill: 10°   Ceiling: Unl
Heat Index: 10°   Visibility: 6mi
Dew Point:   Wind: 2mph
Humidity: 76%   Direction: 280°W
Pressure: 30.21"   Gusts: NA
Location:  39.22°N, 139.9°E
Report Text: RJSY 270800Z 28002KT 9999 FEW015 10/06 Q1023
Loading
Personal Weather Stations






























Interactive Weather Map New forecast layout! Learn more

10-Day Weather Forecast

Advertisements
Track Severe Weather on mobile